Hattiesburg Laurel Regional Airport Hattiesburg,Laurel US
ICAO: KPIB
IATA: PIB
Category: Medium
Scheduled Services: Yes

Elevation: 298 ft
TransAlt. 18000 ft.

Airport Communications:
AWOS 3:128.325
HOUSTON CNTR:126.8
CTAF/UNICOM:123

KPIB Zoom In..

Runways:

(A) RW 18 length 6502 ft width 150 ft
ILS 109.50 / hdg 181

(B) RW 36 length 6502 ft width 150 ft
---- / hdg 1

Location; KPIB
Day. 24 / Time. 12.56 Zulu
* Altimeter: 30.13
* Temperature: 23° c. 73.4°f.
* Wind from: 020° Speed 03 kn.
Dewpoint: 21° c.
Visibility: 10 Statute Miles.
Clouds: Few 1800 ft.

KPIB 241256Z AUTO 02003KT 10SM FEW018 23/21 A3013 RMK AO2 SLP198 T02280211


Wind From 020°
Speed 03 kn.

 
 
jpsmedia.com for Web Design SOUNDCLOUD worldairports.se 2018   terms of use